sensor_id;sensor_type;location;lat;lon;timestamp;temperature;humidity
66096;SHT31;53861;53.422;14.530;2022-07-23T00:02:01;16.09;88.11
66096;SHT31;53861;53.422;14.530;2022-07-23T00:04:28;16.17;87.97
66096;SHT31;53861;53.422;14.530;2022-07-23T00:06:56;16.16;87.41
66096;SHT31;53861;53.422;14.530;2022-07-23T00:09:23;16.28;86.69
66096;SHT31;53861;53.422;14.530;2022-07-23T00:11:51;16.37;86.20
66096;SHT31;53861;53.422;14.530;2022-07-23T00:14:19;16.33;85.75
66096;SHT31;53861;53.422;14.530;2022-07-23T00:16:48;16.33;86.49
66096;SHT31;53861;53.422;14.530;2022-07-23T00:19:21;16.24;85.85
66096;SHT31;53861;53.422;14.530;2022-07-23T00:21:49;16.14;86.41
66096;SHT31;53861;53.422;14.530;2022-07-23T00:24:16;16.04;87.01
66096;SHT31;53861;53.422;14.530;2022-07-23T00:26:44;16.07;86.74
66096;SHT31;53861;53.422;14.530;2022-07-23T00:29:12;16.00;87.01
66096;SHT31;53861;53.422;14.530;2022-07-23T00:31:39;15.97;87.50
66096;SHT31;53861;53.422;14.530;2022-07-23T00:34:08;15.96;87.47
66096;SHT31;53861;53.422;14.530;2022-07-23T00:36:36;15.87;86.88
66096;SHT31;53861;53.422;14.530;2022-07-23T00:39:04;15.81;87.12
66096;SHT31;53861;53.422;14.530;2022-07-23T00:41:31;15.69;87.46
66096;SHT31;53861;53.422;14.530;2022-07-23T00:44:15;15.61;87.70
66096;SHT31;53861;53.422;14.530;2022-07-23T00:46:45;15.66;88.17
66096;SHT31;53861;53.422;14.530;2022-07-23T00:49:14;15.59;87.78
66096;SHT31;53861;53.422;14.530;2022-07-23T00:51:42;15.52;88.24
66096;SHT31;53861;53.422;14.530;2022-07-23T00:54:09;15.48;88.14
66096;SHT31;53861;53.422;14.530;2022-07-23T00:56:38;15.51;87.88
66096;SHT31;53861;53.422;14.530;2022-07-23T00:59:07;15.44;88.33
66096;SHT31;53861;53.422;14.530;2022-07-23T01:01:34;15.38;88.04
66096;SHT31;53861;53.422;14.530;2022-07-23T01:04:02;15.35;88.29
66096;SHT31;53861;53.422;14.530;2022-07-23T01:06:33;15.41;88.29
66096;SHT31;53861;53.422;14.530;2022-07-23T01:09:03;15.27;88.01
66096;SHT31;53861;53.422;14.530;2022-07-23T01:11:33;15.18;88.56
66096;SHT31;53861;53.422;14.530;2022-07-23T01:14:08;15.21;88.84
66096;SHT31;53861;53.422;14.530;2022-07-23T01:16:36;15.18;88.77
66096;SHT31;53861;53.422;14.530;2022-07-23T01:19:03;15.17;88.66
66096;SHT31;53861;53.422;14.530;2022-07-23T01:21:36;15.12;89.01
66096;SHT31;53861;53.422;14.530;2022-07-23T01:24:06;15.12;89.16
66096;SHT31;53861;53.422;14.530;2022-07-23T01:26:35;15.14;88.98
66096;SHT31;53861;53.422;14.530;2022-07-23T01:29:03;15.12;89.01
66096;SHT31;53861;53.422;14.530;2022-07-23T01:31:31;15.17;88.78
66096;SHT31;53861;53.422;14.530;2022-07-23T01:33:59;15.12;89.16
66096;SHT31;53861;53.422;14.530;2022-07-23T01:36:27;15.12;89.13
66096;SHT31;53861;53.422;14.530;2022-07-23T01:38:55;15.17;89.07
66096;SHT31;53861;53.422;14.530;2022-07-23T01:41:24;15.24;89.14
66096;SHT31;53861;53.422;14.530;2022-07-23T01:43:57;15.27;88.39
66096;SHT31;53861;53.422;14.530;2022-07-23T01:46:24;15.28;87.49
66096;SHT31;53861;53.422;14.530;2022-07-23T01:48:52;15.22;87.74
66096;SHT31;53861;53.422;14.530;2022-07-23T01:51:19;15.30;88.20
66096;SHT31;53861;53.422;14.530;2022-07-23T01:53:47;15.18;88.37
66096;SHT31;53861;53.422;14.530;2022-07-23T01:56:14;15.10;88.45
66096;SHT31;53861;53.422;14.530;2022-07-23T01:58:43;15.12;87.95
66096;SHT31;53861;53.422;14.530;2022-07-23T02:01:11;15.12;89.03
66096;SHT31;53861;53.422;14.530;2022-07-23T02:03:38;15.14;88.60
66096;SHT31;53861;53.422;14.530;2022-07-23T02:06:06;15.17;88.41
66096;SHT31;53861;53.422;14.530;2022-07-23T02:08:33;15.21;88.86
66096;SHT31;53861;53.422;14.530;2022-07-23T02:11:01;15.28;88.09
66096;SHT31;53861;53.422;14.530;2022-07-23T02:13:28;15.32;87.94
66096;SHT31;53861;53.422;14.530;2022-07-23T02:15:57;15.45;87.56
66096;SHT31;53861;53.422;14.530;2022-07-23T02:18:25;15.45;87.24
66096;SHT31;53861;53.422;14.530;2022-07-23T02:20:52;15.46;87.32
66096;SHT31;53861;53.422;14.530;2022-07-23T02:23:19;15.46;86.45
66096;SHT31;53861;53.422;14.530;2022-07-23T02:25:47;15.53;87.80
66096;SHT31;53861;53.422;14.530;2022-07-23T02:28:15;15.48;86.91
66096;SHT31;53861;53.422;14.530;2022-07-23T02:30:43;15.51;86.87
66096;SHT31;53861;53.422;14.530;2022-07-23T02:33:12;15.48;85.39
66096;SHT31;53861;53.422;14.530;2022-07-23T02:35:40;15.51;86.89
66096;SHT31;53861;53.422;14.530;2022-07-23T02:38:07;15.55;86.50
66096;SHT31;53861;53.422;14.530;2022-07-23T02:40:34;15.51;87.49
66096;SHT31;53861;53.422;14.530;2022-07-23T02:43:02;15.32;86.35
66096;SHT31;53861;53.422;14.530;2022-07-23T02:45:30;15.35;85.74
66096;SHT31;53861;53.422;14.530;2022-07-23T02:47:57;15.25;86.28
66096;SHT31;53861;53.422;14.530;2022-07-23T02:50:26;15.15;86.61
66096;SHT31;53861;53.422;14.530;2022-07-23T02:52:53;15.10;86.87
66096;SHT31;53861;53.422;14.530;2022-07-23T02:55:21;15.07;86.86
66096;SHT31;53861;53.422;14.530;2022-07-23T02:57:48;15.10;86.55
66096;SHT31;53861;53.422;14.530;2022-07-23T03:00:16;15.00;86.75
66096;SHT31;53861;53.422;14.530;2022-07-23T03:02:44;15.08;86.13
66096;SHT31;53861;53.422;14.530;2022-07-23T03:05:11;15.10;85.67
66096;SHT31;53861;53.422;14.530;2022-07-23T03:07:40;15.10;85.82
66096;SHT31;53861;53.422;14.530;2022-07-23T03:10:08;15.07;85.71
66096;SHT31;53861;53.422;14.530;2022-07-23T03:12:35;15.11;86.28
66096;SHT31;53861;53.422;14.530;2022-07-23T03:15:04;15.17;85.79
66096;SHT31;53861;53.422;14.530;2022-07-23T03:17:31;15.15;85.60
66096;SHT31;53861;53.422;14.530;2022-07-23T03:19:59;15.24;84.70
66096;SHT31;53861;53.422;14.530;2022-07-23T03:22:26;15.24;83.37
66096;SHT31;53861;53.422;14.530;2022-07-23T03:24:55;15.24;84.76
66096;SHT31;53861;53.422;14.530;2022-07-23T03:27:24;15.27;85.55
66096;SHT31;53861;53.422;14.530;2022-07-23T03:29:53;15.34;84.44
66096;SHT31;53861;53.422;14.530;2022-07-23T03:32:22;15.25;83.93
66096;SHT31;53861;53.422;14.530;2022-07-23T03:34:50;15.39;84.92
66096;SHT31;53861;53.422;14.530;2022-07-23T03:37:18;15.34;84.76
66096;SHT31;53861;53.422;14.530;2022-07-23T03:39:46;15.32;84.21
66096;SHT31;53861;53.422;14.530;2022-07-23T03:42:15;15.30;83.12
66096;SHT31;53861;53.422;14.530;2022-07-23T03:44:43;15.32;83.22
66096;SHT31;53861;53.422;14.530;2022-07-23T03:47:10;15.34;84.16
66096;SHT31;53861;53.422;14.530;2022-07-23T03:49:38;15.45;82.83
66096;SHT31;53861;53.422;14.530;2022-07-23T03:52:06;15.52;83.24
66096;SHT31;53861;53.422;14.530;2022-07-23T03:54:33;15.51;83.03
66096;SHT31;53861;53.422;14.530;2022-07-23T03:57:00;15.56;82.65
66096;SHT31;53861;53.422;14.530;2022-07-23T03:59:30;15.55;83.31
66096;SHT31;53861;53.422;14.530;2022-07-23T04:01:57;15.67;85.42
66096;SHT31;53861;53.422;14.530;2022-07-23T04:04:25;15.66;85.29
66096;SHT31;53861;53.422;14.530;2022-07-23T04:06:52;15.72;82.77
66096;SHT31;53861;53.422;14.530;2022-07-23T04:09:20;15.78;84.51
66096;SHT31;53861;53.422;14.530;2022-07-23T04:11:50;15.73;80.18
66096;SHT31;53861;53.422;14.530;2022-07-23T04:14:17;15.81;82.44
66096;SHT31;53861;53.422;14.530;2022-07-23T04:16:46;15.90;82.29
66096;SHT31;53861;53.422;14.530;2022-07-23T04:19:13;15.85;83.76
66096;SHT31;53861;53.422;14.530;2022-07-23T04:21:41;15.93;82.58
66096;SHT31;53861;53.422;14.530;2022-07-23T04:24:08;15.93;80.57
66096;SHT31;53861;53.422;14.530;2022-07-23T04:26:36;15.99;82.20
66096;SHT31;53861;53.422;14.530;2022-07-23T04:29:03;16.09;81.21
66096;SHT31;53861;53.422;14.530;2022-07-23T04:31:31;16.21;82.97
66096;SHT31;53861;53.422;14.530;2022-07-23T04:34:00;16.28;82.29
66096;SHT31;53861;53.422;14.530;2022-07-23T04:36:28;16.41;83.33
66096;SHT31;53861;53.422;14.530;2022-07-23T04:38:55;16.48;81.73
66096;SHT31;53861;53.422;14.530;2022-07-23T04:41:23;16.57;81.08
66096;SHT31;53861;53.422;14.530;2022-07-23T04:43:50;16.61;81.11
66096;SHT31;53861;53.422;14.530;2022-07-23T04:46:19;16.53;81.28
66096;SHT31;53861;53.422;14.530;2022-07-23T04:48:46;16.51;79.64
66096;SHT31;53861;53.422;14.530;2022-07-23T04:51:15;16.57;80.61
66096;SHT31;53861;53.422;14.530;2022-07-23T04:53:42;16.53;79.46
66096;SHT31;53861;53.422;14.530;2022-07-23T04:56:10;16.61;82.07
66096;SHT31;53861;53.422;14.530;2022-07-23T04:58:37;16.63;81.92
66096;SHT31;53861;53.422;14.530;2022-07-23T05:01:04;16.57;83.72
66096;SHT31;53861;53.422;14.530;2022-07-23T05:03:32;16.61;78.97
66096;SHT31;53861;53.422;14.530;2022-07-23T05:05:59;16.63;78.94
66096;SHT31;53861;53.422;14.530;2022-07-23T05:08:28;16.67;80.78
66096;SHT31;53861;53.422;14.530;2022-07-23T05:10:56;16.79;81.36
66096;SHT31;53861;53.422;14.530;2022-07-23T05:13:23;16.98;79.97
66096;SHT31;53861;53.422;14.530;2022-07-23T05:15:51;17.12;77.54
66096;SHT31;53861;53.422;14.530;2022-07-23T05:18:18;17.40;77.24
66096;SHT31;53861;53.422;14.530;2022-07-23T05:20:46;17.59;77.79
66096;SHT31;53861;53.422;14.530;2022-07-23T05:23:14;17.79;75.31
66096;SHT31;53861;53.422;14.530;2022-07-23T05:25:43;17.98;75.23
66096;SHT31;53861;53.422;14.530;2022-07-23T05:28:10;18.07;73.66
66096;SHT31;53861;53.422;14.530;2022-07-23T05:30:38;18.20;75.73
66096;SHT31;53861;53.422;14.530;2022-07-23T05:33:05;18.30;75.52
66096;SHT31;53861;53.422;14.530;2022-07-23T05:35:34;18.35;71.49
66096;SHT31;53861;53.422;14.530;2022-07-23T05:38:01;18.44;70.83
66096;SHT31;53861;53.422;14.530;2022-07-23T05:40:29;18.79;71.12
66096;SHT31;53861;53.422;14.530;2022-07-23T05:42:58;19.07;67.24
66096;SHT31;53861;53.422;14.530;2022-07-23T05:45:25;19.07;69.56
66096;SHT31;53861;53.422;14.530;2022-07-23T05:47:53;19.03;69.69
66096;SHT31;53861;53.422;14.530;2022-07-23T05:50:21;18.96;69.38
66096;SHT31;53861;53.422;14.530;2022-07-23T05:52:48;18.99;72.93
66096;SHT31;53861;53.422;14.530;2022-07-23T05:55:16;19.02;70.75
66096;SHT31;53861;53.422;14.530;2022-07-23T05:57:44;18.91;70.78
66096;SHT31;53861;53.422;14.530;2022-07-23T06:00:13;18.71;70.44
66096;SHT31;53861;53.422;14.530;2022-07-23T06:02:41;18.59;73.39
66096;SHT31;53861;53.422;14.530;2022-07-23T06:05:08;18.65;68.91
66096;SHT31;53861;53.422;14.530;2022-07-23T06:07:36;18.54;70.53
66096;SHT31;53861;53.422;14.530;2022-07-23T06:10:05;18.61;68.54
66096;SHT31;53861;53.422;14.530;2022-07-23T06:12:33;18.51;69.42
66096;SHT31;53861;53.422;14.530;2022-07-23T06:15:01;18.31;68.88
66096;SHT31;53861;53.422;14.530;2022-07-23T06:17:30;18.14;74.22
66096;SHT31;53861;53.422;14.530;2022-07-23T06:19:58;18.02;72.59
66096;SHT31;53861;53.422;14.530;2022-07-23T06:22:25;17.90;73.06
66096;SHT31;53861;53.422;14.530;2022-07-23T06:24:53;18.10;73.61
66096;SHT31;53861;53.422;14.530;2022-07-23T06:27:21;18.10;71.29
66096;SHT31;53861;53.422;14.530;2022-07-23T06:29:49;18.00;73.68
66096;SHT31;53861;53.422;14.530;2022-07-23T06:32:16;17.86;75.58
66096;SHT31;53861;53.422;14.530;2022-07-23T06:34:45;17.70;77.81
66096;SHT31;53861;53.422;14.530;2022-07-23T06:37:13;17.53;78.97
66096;SHT31;53861;53.422;14.530;2022-07-23T06:39:40;17.40;78.44
66096;SHT31;53861;53.422;14.530;2022-07-23T06:42:08;17.28;79.57
66096;SHT31;53861;53.422;14.530;2022-07-23T06:44:36;17.22;81.10
66096;SHT31;53861;53.422;14.530;2022-07-23T06:47:03;17.19;82.57
66096;SHT31;53861;53.422;14.530;2022-07-23T06:49:31;17.04;82.70
66096;SHT31;53861;53.422;14.530;2022-07-23T06:52:00;16.98;84.75
66096;SHT31;53861;53.422;14.530;2022-07-23T06:54:27;16.95;84.89
66096;SHT31;53861;53.422;14.530;2022-07-23T06:56:55;16.91;84.85
66096;SHT31;53861;53.422;14.530;2022-07-23T06:59:23;16.99;85.10
66096;SHT31;53861;53.422;14.530;2022-07-23T07:01:50;17.14;83.83
66096;SHT31;53861;53.422;14.530;2022-07-23T07:04:18;17.38;86.34
66096;SHT31;53861;53.422;14.530;2022-07-23T07:06:45;17.70;85.21
66096;SHT31;53861;53.422;14.530;2022-07-23T07:09:14;17.96;83.95
66096;SHT31;53861;53.422;14.530;2022-07-23T07:11:41;18.40;82.56
66096;SHT31;53861;53.422;14.530;2022-07-23T07:14:09;18.69;82.02
66096;SHT31;53861;53.422;14.530;2022-07-23T07:16:36;19.03;84.42
66096;SHT31;53861;53.422;14.530;2022-07-23T07:19:04;18.75;77.69
66096;SHT31;53861;53.422;14.530;2022-07-23T07:21:31;19.09;80.74
66096;SHT31;53861;53.422;14.530;2022-07-23T07:23:59;19.23;77.54
66096;SHT31;53861;53.422;14.530;2022-07-23T07:26:28;19.56;78.24
66096;SHT31;53861;53.422;14.530;2022-07-23T07:28:57;19.66;78.57
66096;SHT31;53861;53.422;14.530;2022-07-23T07:31:24;20.14;77.20
66096;SHT31;53861;53.422;14.530;2022-07-23T07:33:52;20.07;76.20
66096;SHT31;53861;53.422;14.530;2022-07-23T07:36:23;19.88;75.16
66096;SHT31;53861;53.422;14.530;2022-07-23T07:38:50;19.71;77.95
66096;SHT31;53861;53.422;14.530;2022-07-23T07:41:18;19.51;78.45
66096;SHT31;53861;53.422;14.530;2022-07-23T07:43:51;19.44;79.81
66096;SHT31;53861;53.422;14.530;2022-07-23T07:46:18;19.19;78.06
66096;SHT31;53861;53.422;14.530;2022-07-23T07:48:46;19.03;80.06
66096;SHT31;53861;53.422;14.530;2022-07-23T07:51:14;18.85;80.46
66096;SHT31;53861;53.422;14.530;2022-07-23T07:53:41;18.88;81.13
66096;SHT31;53861;53.422;14.530;2022-07-23T07:56:09;18.72;79.00
66096;SHT31;53861;53.422;14.530;2022-07-23T07:58:37;18.54;81.09
66096;SHT31;53861;53.422;14.530;2022-07-23T08:01:06;18.59;81.08
66096;SHT31;53861;53.422;14.530;2022-07-23T08:03:36;18.48;84.21
66096;SHT31;53861;53.422;14.530;2022-07-23T08:06:04;18.52;82.50
66096;SHT31;53861;53.422;14.530;2022-07-23T08:08:31;18.62;82.84
66096;SHT31;53861;53.422;14.530;2022-07-23T08:10:59;18.66;83.40
66096;SHT31;53861;53.422;14.530;2022-07-23T08:13:27;18.41;80.77
66096;SHT31;53861;53.422;14.530;2022-07-23T08:15:54;18.54;79.30
66096;SHT31;53861;53.422;14.530;2022-07-23T08:18:23;18.59;80.80
66096;SHT31;53861;53.422;14.530;2022-07-23T08:20:51;18.62;80.93
66096;SHT31;53861;53.422;14.530;2022-07-23T08:23:18;18.69;83.33
66096;SHT31;53861;53.422;14.530;2022-07-23T08:25:46;18.63;82.76
66096;SHT31;53861;53.422;14.530;2022-07-23T08:28:14;18.54;79.81
66096;SHT31;53861;53.422;14.530;2022-07-23T08:30:43;18.69;83.34
66096;SHT31;53861;53.422;14.530;2022-07-23T08:33:13;18.83;79.43
66096;SHT31;53861;53.422;14.530;2022-07-23T08:35:43;19.00;80.35
66096;SHT31;53861;53.422;14.530;2022-07-23T08:38:14;19.20;82.04
66096;SHT31;53861;53.422;14.530;2022-07-23T08:40:45;19.13;78.96
66096;SHT31;53861;53.422;14.530;2022-07-23T08:43:15;19.28;75.42
66096;SHT31;53861;53.422;14.530;2022-07-23T08:45:44;19.44;75.91
66096;SHT31;53861;53.422;14.530;2022-07-23T08:48:15;19.53;77.28
66096;SHT31;53861;53.422;14.530;2022-07-23T08:50:46;19.47;76.90
66096;SHT31;53861;53.422;14.530;2022-07-23T08:53:15;19.53;80.29
66096;SHT31;53861;53.422;14.530;2022-07-23T08:55:44;19.51;77.62
66096;SHT31;53861;53.422;14.530;2022-07-23T08:58:18;19.64;78.97
66096;SHT31;53861;53.422;14.530;2022-07-23T09:00:46;19.66;77.64
66096;SHT31;53861;53.422;14.530;2022-07-23T09:03:15;19.81;78.82
66096;SHT31;53861;53.422;14.530;2022-07-23T09:05:45;20.22;73.18
66096;SHT31;53861;53.422;14.530;2022-07-23T09:08:14;20.46;72.42
66096;SHT31;53861;53.422;14.530;2022-07-23T09:10:49;20.72;73.68
66096;SHT31;53861;53.422;14.530;2022-07-23T09:13:25;21.19;72.25
66096;SHT31;53861;53.422;14.530;2022-07-23T09:15:54;21.93;71.85
66096;SHT31;53861;53.422;14.530;2022-07-23T09:18:29;22.28;69.68
66096;SHT31;53861;53.422;14.530;2022-07-23T09:21:10;21.96;67.80
66096;SHT31;53861;53.422;14.530;2022-07-23T09:23:41;22.29;62.94
66096;SHT31;53861;53.422;14.530;2022-07-23T09:26:32;22.22;68.58
66096;SHT31;53861;53.422;14.530;2022-07-23T09:29:06;22.49;58.82
66096;SHT31;53861;53.422;14.530;2022-07-23T09:31:42;22.46;61.60
66096;SHT31;53861;53.422;14.530;2022-07-23T09:34:13;24.07;59.75
66096;SHT31;53861;53.422;14.530;2022-07-23T09:36:42;24.59;56.93
66096;SHT31;53861;53.422;14.530;2022-07-23T09:39:11;24.54;62.76
66096;SHT31;53861;53.422;14.530;2022-07-23T09:41:41;26.18;54.94
66096;SHT31;53861;53.422;14.530;2022-07-23T09:44:14;26.18;52.63
66096;SHT31;53861;53.422;14.530;2022-07-23T09:46:44;25.43;56.60
66096;SHT31;53861;53.422;14.530;2022-07-23T09:49:17;24.60;59.70
66096;SHT31;53861;53.422;14.530;2022-07-23T09:51:52;24.36;56.79
66096;SHT31;53861;53.422;14.530;2022-07-23T09:54:23;24.41;57.53
66096;SHT31;53861;53.422;14.530;2022-07-23T09:56:52;23.72;59.24
66096;SHT31;53861;53.422;14.530;2022-07-23T09:59:23;24.47;57.82
66096;SHT31;53861;53.422;14.530;2022-07-23T10:01:53;25.25;53.14
66096;SHT31;53861;53.422;14.530;2022-07-23T10:04:22;26.43;53.78
66096;SHT31;53861;53.422;14.530;2022-07-23T10:06:54;26.65;55.20
66096;SHT31;53861;53.422;14.530;2022-07-23T10:09:25;26.59;45.31
66096;SHT31;53861;53.422;14.530;2022-07-23T10:11:58;26.24;48.61
66096;SHT31;53861;53.422;14.530;2022-07-23T10:14:40;25.69;51.03
66096;SHT31;53861;53.422;14.530;2022-07-23T10:17:08;25.66;55.04
66096;SHT31;53861;53.422;14.530;2022-07-23T10:19:36;25.59;54.08
66096;SHT31;53861;53.422;14.530;2022-07-23T10:22:08;25.61;53.00
66096;SHT31;53861;53.422;14.530;2022-07-23T10:24:58;26.49;51.16
66096;SHT31;53861;53.422;14.530;2022-07-23T10:27:55;26.82;49.88
66096;SHT31;53861;53.422;14.530;2022-07-23T10:30:32;26.62;54.33
66096;SHT31;53861;53.422;14.530;2022-07-23T10:33:14;26.64;53.11
66096;SHT31;53861;53.422;14.530;2022-07-23T10:35:47;25.49;51.93
66096;SHT31;53861;53.422;14.530;2022-07-23T10:38:21;25.32;52.89
66096;SHT31;53861;53.422;14.530;2022-07-23T10:40:56;25.62;49.51
66096;SHT31;53861;53.422;14.530;2022-07-23T10:43:24;24.99;53.65
66096;SHT31;53861;53.422;14.530;2022-07-23T10:45:52;24.68;52.29
66096;SHT31;53861;53.422;14.530;2022-07-23T10:48:21;24.88;58.18
66096;SHT31;53861;53.422;14.530;2022-07-23T10:51:08;25.47;52.93
66096;SHT31;53861;53.422;14.530;2022-07-23T10:53:57;26.49;56.11
66096;SHT31;53861;53.422;14.530;2022-07-23T10:56:50;26.51;51.58
66096;SHT31;53861;53.422;14.530;2022-07-23T10:59:31;26.30;49.92
66096;SHT31;53861;53.422;14.530;2022-07-23T11:02:22;26.55;47.11
66096;SHT31;53861;53.422;14.530;2022-07-23T11:04:53;26.69;47.38
66096;SHT31;53861;53.422;14.530;2022-07-23T11:07:21;27.23;48.72
66096;SHT31;53861;53.422;14.530;2022-07-23T11:09:49;26.72;50.01
66096;SHT31;53861;53.422;14.530;2022-07-23T11:12:34;26.21;48.20
66096;SHT31;53861;53.422;14.530;2022-07-23T11:15:09;25.92;48.76
66096;SHT31;53861;53.422;14.530;2022-07-23T11:17:37;26.99;47.85
66096;SHT31;53861;53.422;14.530;2022-07-23T11:20:24;26.86;47.14
66096;SHT31;53861;53.422;14.530;2022-07-23T11:22:54;26.55;48.48
66096;SHT31;53861;53.422;14.530;2022-07-23T11:25:36;27.33;44.52
66096;SHT31;53861;53.422;14.530;2022-07-23T11:28:13;28.48;43.69
66096;SHT31;53861;53.422;14.530;2022-07-23T11:30:43;29.26;44.33
66096;SHT31;53861;53.422;14.530;2022-07-23T11:33:19;29.38;41.35
66096;SHT31;53861;53.422;14.530;2022-07-23T11:36:02;30.62;38.26
66096;SHT31;53861;53.422;14.530;2022-07-23T11:38:31;30.36;43.51
66096;SHT31;53861;53.422;14.530;2022-07-23T11:41:01;30.42;44.89
66096;SHT31;53861;53.422;14.530;2022-07-23T11:43:28;29.46;43.04
66096;SHT31;53861;53.422;14.530;2022-07-23T11:45:59;30.05;43.25
66096;SHT31;53861;53.422;14.530;2022-07-23T11:48:28;29.92;41.56
66096;SHT31;53861;53.422;14.530;2022-07-23T11:50:57;30.45;40.84
66096;SHT31;53861;53.422;14.530;2022-07-23T11:53:27;30.39;35.97
66096;SHT31;53861;53.422;14.530;2022-07-23T11:56:04;30.75;38.47
66096;SHT31;53861;53.422;14.530;2022-07-23T11:58:36;30.97;43.13
66096;SHT31;53861;53.422;14.530;2022-07-23T12:01:05;30.02;41.45
66096;SHT31;53861;53.422;14.530;2022-07-23T12:03:33;28.34;41.67
66096;SHT31;53861;53.422;14.530;2022-07-23T12:06:01;28.15;43.69
66096;SHT31;53861;53.422;14.530;2022-07-23T12:08:28;29.47;40.28
66096;SHT31;53861;53.422;14.530;2022-07-23T12:10:56;29.54;39.44
66096;SHT31;53861;53.422;14.530;2022-07-23T12:13:25;29.92;41.94
66096;SHT31;53861;53.422;14.530;2022-07-23T12:15:56;29.89;41.03
66096;SHT31;53861;53.422;14.530;2022-07-23T12:18:25;29.20;40.97
66096;SHT31;53861;53.422;14.530;2022-07-23T12:20:54;29.57;41.70
66096;SHT31;53861;53.422;14.530;2022-07-23T12:23:25;28.08;42.09
66096;SHT31;53861;53.422;14.530;2022-07-23T12:25:54;27.71;42.84
66096;SHT31;53861;53.422;14.530;2022-07-23T12:28:30;26.68;50.92
66096;SHT31;53861;53.422;14.530;2022-07-23T12:30:59;25.97;46.83
66096;SHT31;53861;53.422;14.530;2022-07-23T12:33:32;25.72;47.08
66096;SHT31;53861;53.422;14.530;2022-07-23T12:36:01;27.15;51.47
66096;SHT31;53861;53.422;14.530;2022-07-23T12:38:38;28.08;44.61
66096;SHT31;53861;53.422;14.530;2022-07-23T12:41:06;28.58;41.74
66096;SHT31;53861;53.422;14.530;2022-07-23T12:43:37;28.27;41.77
66096;SHT31;53861;53.422;14.530;2022-07-23T12:46:09;27.26;45.23
66096;SHT31;53861;53.422;14.530;2022-07-23T12:48:51;26.49;52.67
66096;SHT31;53861;53.422;14.530;2022-07-23T12:51:21;27.43;45.90
66096;SHT31;53861;53.422;14.530;2022-07-23T12:53:50;28.41;46.45
66096;SHT31;53861;53.422;14.530;2022-07-23T12:56:21;29.19;42.02
66096;SHT31;53861;53.422;14.530;2022-07-23T12:58:53;29.35;40.40
66096;SHT31;53861;53.422;14.530;2022-07-23T13:01:27;28.37;46.08
66096;SHT31;53861;53.422;14.530;2022-07-23T13:04:03;27.60;47.27
66096;SHT31;53861;53.422;14.530;2022-07-23T13:06:32;27.77;42.73
66096;SHT31;53861;53.422;14.530;2022-07-23T13:09:01;27.33;46.94
66096;SHT31;53861;53.422;14.530;2022-07-23T13:11:29;27.33;43.37
66096;SHT31;53861;53.422;14.530;2022-07-23T13:13:59;28.15;44.04
66096;SHT31;53861;53.422;14.530;2022-07-23T13:16:27;28.39;41.63
66096;SHT31;53861;53.422;14.530;2022-07-23T13:18:56;28.49;46.58
66096;SHT31;53861;53.422;14.530;2022-07-23T13:21:25;28.69;40.29
66096;SHT31;53861;53.422;14.530;2022-07-23T13:23:52;28.96;39.86
66096;SHT31;53861;53.422;14.530;2022-07-23T13:26:20;29.51;39.65
66096;SHT31;53861;53.422;14.530;2022-07-23T13:28:47;29.63;42.30
66096;SHT31;53861;53.422;14.530;2022-07-23T13:31:18;29.51;42.10
66096;SHT31;53861;53.422;14.530;2022-07-23T13:33:49;28.20;40.30
66096;SHT31;53861;53.422;14.530;2022-07-23T13:36:16;27.71;43.96
66096;SHT31;53861;53.422;14.530;2022-07-23T13:38:44;27.29;41.13
66096;SHT31;53861;53.422;14.530;2022-07-23T13:41:11;27.20;42.14
66096;SHT31;53861;53.422;14.530;2022-07-23T13:43:39;26.86;42.77
66096;SHT31;53861;53.422;14.530;2022-07-23T13:46:08;26.75;44.16
66096;SHT31;53861;53.422;14.530;2022-07-23T13:48:39;27.25;44.44
66096;SHT31;53861;53.422;14.530;2022-07-23T13:51:07;26.95;43.53
66096;SHT31;53861;53.422;14.530;2022-07-23T13:53:35;26.74;41.79
66096;SHT31;53861;53.422;14.530;2022-07-23T13:56:03;26.35;42.40
66096;SHT31;53861;53.422;14.530;2022-07-23T13:58:30;26.08;43.81
66096;SHT31;53861;53.422;14.530;2022-07-23T14:00:57;26.10;46.05
66096;SHT31;53861;53.422;14.530;2022-07-23T14:03:25;26.14;45.70
66096;SHT31;53861;53.422;14.530;2022-07-23T14:05:54;26.14;44.33
66096;SHT31;53861;53.422;14.530;2022-07-23T14:08:22;26.49;45.71
66096;SHT31;53861;53.422;14.530;2022-07-23T14:10:50;26.55;46.42
66096;SHT31;53861;53.422;14.530;2022-07-23T14:13:18;26.69;42.75
66096;SHT31;53861;53.422;14.530;2022-07-23T14:15:45;26.68;43.41
66096;SHT31;53861;53.422;14.530;2022-07-23T14:18:13;26.67;44.03
66096;SHT31;53861;53.422;14.530;2022-07-23T14:20:41;26.76;44.26
66096;SHT31;53861;53.422;14.530;2022-07-23T14:23:10;26.52;46.91
66096;SHT31;53861;53.422;14.530;2022-07-23T14:25:38;26.45;45.88
66096;SHT31;53861;53.422;14.530;2022-07-23T14:28:06;26.34;45.32
66096;SHT31;53861;53.422;14.530;2022-07-23T14:30:34;26.38;43.04
66096;SHT31;53861;53.422;14.530;2022-07-23T14:33:02;26.41;43.64
66096;SHT31;53861;53.422;14.530;2022-07-23T14:35:29;26.35;45.76
66096;SHT31;53861;53.422;14.530;2022-07-23T14:37:57;26.14;43.67
66096;SHT31;53861;53.422;14.530;2022-07-23T14:40:26;26.17;46.09
66096;SHT31;53861;53.422;14.530;2022-07-23T14:42:53;26.01;46.80
66096;SHT31;53861;53.422;14.530;2022-07-23T14:45:21;25.59;45.17
66096;SHT31;53861;53.422;14.530;2022-07-23T14:47:49;25.38;45.62
66096;SHT31;53861;53.422;14.530;2022-07-23T14:50:16;25.42;45.86
66096;SHT31;53861;53.422;14.530;2022-07-23T14:52:44;25.42;44.76
66096;SHT31;53861;53.422;14.530;2022-07-23T14:55:13;25.25;45.64
66096;SHT31;53861;53.422;14.530;2022-07-23T14:57:44;24.94;46.55
66096;SHT31;53861;53.422;14.530;2022-07-23T15:00:16;24.56;48.36
66096;SHT31;53861;53.422;14.530;2022-07-23T15:02:43;24.80;47.17
66096;SHT31;53861;53.422;14.530;2022-07-23T15:05:11;24.74;47.69
66096;SHT31;53861;53.422;14.530;2022-07-23T15:07:38;24.60;45.77
66096;SHT31;53861;53.422;14.530;2022-07-23T15:10:07;24.63;46.34
66096;SHT31;53861;53.422;14.530;2022-07-23T15:12:34;24.67;45.37
66096;SHT31;53861;53.422;14.530;2022-07-23T15:15:04;24.67;47.79
66096;SHT31;53861;53.422;14.530;2022-07-23T15:17:32;24.65;45.59
66096;SHT31;53861;53.422;14.530;2022-07-23T15:20:00;24.77;46.04
66096;SHT31;53861;53.422;14.530;2022-07-23T15:22:30;24.96;48.21
66096;SHT31;53861;53.422;14.530;2022-07-23T15:24:58;24.75;47.66
66096;SHT31;53861;53.422;14.530;2022-07-23T15:27:27;24.70;46.16
66096;SHT31;53861;53.422;14.530;2022-07-23T15:29:54;24.82;46.73